createdAt,value
2018-02-16T00:01:21.547Z,71.60
2018-02-16T00:03:53.526Z,73.37
2018-02-16T00:06:21.798Z,75.28
2018-02-16T00:08:49.954Z,74.55
2018-02-16T00:11:22.090Z,80.38
2018-02-16T00:13:51.110Z,80.05
2018-02-16T00:16:20.086Z,70.93
2018-02-16T00:18:55.150Z,71.57
2018-02-16T00:21:29.999Z,74.28
2018-02-16T00:23:58.098Z,74.80
2018-02-16T00:26:32.643Z,77.07
2018-02-16T00:29:02.606Z,75.82
2018-02-16T00:31:32.352Z,82.57
2018-02-16T00:34:06.018Z,78.55
2018-02-16T00:41:51.642Z,87.15
2018-02-16T00:44:23.854Z,74.55
2018-02-16T00:46:53.346Z,77.70
2018-02-16T00:49:25.330Z,78.50
2018-02-16T00:52:03.730Z,73.68
2018-02-16T00:54:33.730Z,78.55
2018-02-16T00:57:03.689Z,77.12
2018-02-16T00:59:32.676Z,80.95
2018-02-16T01:02:11.545Z,75.30
2018-02-16T01:04:41.718Z,79.32
2018-02-16T01:07:11.849Z,83.05
2018-02-16T01:09:40.163Z,91.95
2018-02-16T01:12:09.822Z,86.80
2018-02-16T01:14:40.970Z,97.37
2018-02-16T01:17:13.758Z,89.25
2018-02-16T01:19:44.342Z,86.12
2018-02-16T01:22:12.382Z,87.37
2018-02-16T01:24:56.827Z,88.53
2018-02-16T01:27:33.221Z,90.00
2018-02-16T01:30:05.070Z,78.40
2018-02-16T01:32:36.130Z,76.82
2018-02-16T01:35:04.970Z,75.15
2018-02-16T01:37:36.290Z,76.22
2018-02-16T01:40:06.094Z,81.18
2018-02-16T01:42:35.106Z,74.72
2018-02-16T01:45:06.737Z,76.60
2018-02-16T01:47:37.710Z,69.25
2018-02-16T01:50:10.277Z,73.10
2018-02-16T01:52:41.198Z,94.93
2018-02-16T01:55:15.742Z,83.40
2018-02-16T01:57:45.918Z,81.28
2018-02-16T02:00:18.462Z,80.72
2018-02-16T02:02:48.234Z,95.95
2018-02-16T02:05:20.382Z,91.30
2018-02-16T02:07:50.285Z,83.97
2018-02-16T02:10:21.997Z,94.60
2018-02-16T02:12:50.049Z,90.82
2018-02-16T02:15:18.090Z,95.12
2018-02-16T02:17:47.934Z,87.60
2018-02-16T02:20:27.277Z,91.70
2018-02-16T02:22:57.245Z,97.00
2018-02-16T02:25:26.793Z,89.62
2018-02-16T02:28:06.038Z,97.10
2018-02-16T02:30:37.138Z,91.57
2018-02-16T02:33:07.898Z,101.25
2018-02-16T02:35:41.907Z,95.35
2018-02-16T02:38:09.962Z,112.18
2018-02-16T02:40:38.007Z,87.28
2018-02-16T02:43:08.282Z,95.93
2018-02-16T02:45:36.354Z,84.90
2018-02-16T02:48:23.510Z,98.87
2018-02-16T02:51:04.606Z,124.10
2018-02-16T02:53:45.586Z,99.03
2018-02-16T02:56:28.046Z,99.65
2018-02-16T02:58:56.441Z,96.50
2018-02-16T03:01:29.230Z,125.93
2018-02-16T03:03:57.302Z,98.22
2018-02-16T03:06:32.280Z,102.62
2018-02-16T03:09:00.409Z,110.65
2018-02-16T03:11:31.257Z,104.93
2018-02-16T03:14:03.165Z,102.85
2018-02-16T03:16:31.277Z,96.78
2018-02-16T03:19:01.530Z,118.68
2018-02-16T03:21:30.522Z,99.35
2018-02-16T03:24:09.961Z,97.80
2018-02-16T03:26:50.213Z,111.00
2018-02-16T03:29:26.097Z,102.82
2018-02-16T03:31:57.149Z,88.20
2018-02-16T03:34:28.938Z,101.57
2018-02-16T03:37:04.278Z,86.53
2018-02-16T03:39:32.533Z,97.82
2018-02-16T03:42:07.305Z,99.47
2018-02-16T03:44:36.821Z,109.50
2018-02-16T03:47:05.038Z,92.62
2018-02-16T03:49:47.313Z,101.55
2018-02-16T03:52:28.945Z,92.15
2018-02-16T03:54:57.005Z,107.25
2018-02-16T03:57:26.254Z,147.00
2018-02-16T03:59:57.497Z,131.00
2018-02-16T04:02:28.093Z,123.87
2018-02-16T04:04:57.968Z,126.47
2018-02-16T04:07:36.205Z,186.45
2018-02-16T04:10:10.181Z,233.80
2018-02-16T04:12:38.461Z,291.60
2018-02-16T04:15:15.609Z,211.23
2018-02-16T04:17:49.513Z,233.77
2018-02-16T04:20:17.633Z,264.08
2018-02-16T04:22:45.666Z,180.25
2018-02-16T04:25:17.449Z,365.90
2018-02-16T04:27:48.529Z,153.38
2018-02-16T04:30:16.909Z,283.45
2018-02-16T04:32:46.562Z,203.27
2018-02-16T04:35:15.713Z,385.42
2018-02-16T04:37:48.137Z,246.32
2018-02-16T04:40:16.249Z,353.62
2018-02-16T04:42:47.910Z,429.12
2018-02-16T04:45:15.961Z,360.48
2018-02-16T04:47:44.013Z,368.77
2018-02-16T04:50:12.057Z,332.83
2018-02-16T04:52:40.085Z,384.10
2018-02-16T04:55:09.017Z,460.85
2018-02-16T04:57:47.225Z,465.45
2018-02-16T05:00:15.293Z,504.05
2018-02-16T05:02:44.509Z,323.13
2018-02-16T05:05:27.109Z,460.45
2018-02-16T05:07:56.601Z,427.62
2018-02-16T05:10:24.672Z,669.17
2018-02-16T05:12:54.865Z,697.42
2018-02-16T05:15:26.723Z,601.63
2018-02-16T05:17:54.774Z,591.22
2018-02-16T05:20:27.597Z,607.38
2018-02-16T05:22:56.468Z,438.85
2018-02-16T05:25:26.625Z,504.02
2018-02-16T05:27:54.751Z,530.80
2018-02-16T05:30:27.976Z,610.45
2018-02-16T05:32:57.662Z,455.95
2018-02-16T05:35:32.061Z,426.77
2018-02-16T05:38:06.676Z,495.80
2018-02-16T05:40:42.251Z,632.75
2018-02-16T05:43:10.281Z,450.00
2018-02-16T05:45:40.540Z,603.62
2018-02-16T05:48:13.445Z,605.15
2018-02-16T05:50:43.332Z,403.88
2018-02-16T05:53:11.358Z,773.80
2018-02-16T05:55:43.233Z,533.22
2018-02-16T05:58:12.300Z,611.22
2018-02-16T06:00:42.329Z,601.85
2018-02-16T06:03:14.117Z,543.15
2018-02-16T06:05:42.969Z,553.78
2018-02-16T06:08:17.977Z,752.88
2018-02-16T06:10:46.800Z,723.70
2018-02-16T06:13:15.851Z,703.15
2018-02-16T06:15:47.608Z,524.55
2018-02-16T06:18:20.493Z,449.20
2018-02-16T06:20:49.304Z,825.62
2018-02-16T06:23:19.276Z,784.83
2018-02-16T06:25:47.374Z,538.08
2018-02-16T06:28:16.352Z,703.95
2018-02-16T06:30:45.356Z,929.03
2018-02-16T06:33:22.485Z,834.10
2018-02-16T06:35:52.444Z,700.90
2018-02-16T06:38:21.303Z,447.48
2018-02-16T06:40:51.273Z,484.33
2018-02-16T06:43:31.291Z,442.42
2018-02-16T06:46:00.268Z,434.63
2018-02-16T06:48:28.308Z,634.65
2018-02-16T06:50:56.344Z,366.02
2018-02-16T06:53:24.376Z,480.45
2018-02-16T06:55:56.756Z,441.62
2018-02-16T06:58:29.568Z,564.03
2018-02-16T07:03:28.376Z,721.55
2018-02-16T07:06:02.401Z,681.03
2018-02-16T07:08:36.184Z,479.87
2018-02-16T07:11:05.035Z,485.85
2018-02-16T07:13:34.956Z,805.75
2018-02-16T07:16:07.864Z,525.78
2018-02-16T07:18:36.680Z,598.95
2018-02-16T07:21:06.672Z,822.38
2018-02-16T07:23:35.464Z,716.30
2018-02-16T07:26:04.268Z,888.45
2018-02-16T07:28:32.292Z,605.25
2018-02-16T07:31:01.304Z,519.97
2018-02-16T07:33:30.096Z,481.08
2018-02-16T07:36:04.552Z,571.67
2018-02-16T07:38:51.768Z,472.65
2018-02-16T07:44:18.492Z,519.37
2018-02-16T07:46:52.904Z,637.78
2018-02-16T07:49:28.324Z,640.80
2018-02-16T07:52:04.960Z,520.72
2018-02-16T07:54:34.932Z,618.53
2018-02-16T07:57:05.652Z,672.92
2018-02-16T07:59:55.284Z,723.67
2018-02-16T08:02:37.464Z,709.00
2018-02-16T08:05:15.712Z,728.90
2018-02-16T08:07:47.901Z,410.05
2018-02-16T08:10:17.948Z,466.33
2018-02-16T08:12:46.744Z,681.22
2018-02-16T08:15:16.724Z,584.92
2018-02-16T08:17:54.804Z,730.67
2018-02-16T08:20:25.900Z,618.97
2018-02-16T08:23:08.928Z,389.15
2018-02-16T08:25:54.740Z,324.42
2018-02-16T08:28:28.168Z,520.85
2018-02-16T08:30:56.212Z,426.98
2018-02-16T08:33:37.040Z,725.90
2018-02-16T08:36:27.684Z,458.30
2018-02-16T08:38:59.408Z,366.25
2018-02-16T08:41:35.080Z,584.13
2018-02-16T08:44:08.812Z,358.45
2018-02-16T08:46:40.031Z,543.42
2018-02-16T08:49:12.895Z,430.13
2018-02-16T08:51:41.860Z,357.77
2018-02-16T08:54:15.240Z,526.25
2018-02-16T08:56:43.280Z,437.77
2018-02-16T08:59:14.756Z,404.67
2018-02-16T09:01:42.812Z,413.50
2018-02-16T09:04:10.840Z,356.85
2018-02-16T09:06:40.755Z,421.85
2018-02-16T09:09:13.024Z,334.12
2018-02-16T09:11:48.595Z,251.68
2018-02-16T09:14:20.080Z,276.48
2018-02-16T09:16:54.800Z,305.92
2018-02-16T09:19:36.931Z,365.15
2018-02-16T09:22:06.628Z,362.83
2018-02-16T09:24:42.952Z,341.92
2018-02-16T09:27:16.367Z,588.22
2018-02-16T09:29:52.736Z,476.05
2018-02-16T09:35:15.816Z,234.45
2018-02-16T09:37:44.292Z,265.08
2018-02-16T09:40:20.512Z,416.23
2018-02-16T09:42:53.256Z,384.37
2018-02-16T09:45:22.068Z,267.58
2018-02-16T09:47:54.030Z,336.05
2018-02-16T09:50:29.491Z,122.72
2018-02-16T09:53:15.283Z,157.43
2018-02-16T09:55:54.311Z,124.03
2018-02-16T09:58:28.343Z,92.00
2018-02-16T10:01:14.885Z,135.68
2018-02-16T10:03:54.772Z,112.62
2018-02-16T10:06:24.723Z,68.95
2018-02-16T10:08:54.673Z,94.87
2018-02-16T10:11:26.921Z,76.45
2018-02-16T10:13:55.708Z,88.15
2018-02-16T10:16:28.676Z,106.90
2018-02-16T10:19:07.259Z,82.20
2018-02-16T10:21:41.111Z,61.25
2018-02-16T10:24:09.900Z,56.20
2018-02-16T10:26:39.687Z,53.53
2018-02-16T10:29:10.832Z,49.08
2018-02-16T10:31:42.587Z,46.28
2018-02-16T10:34:10.651Z,45.70
2018-02-16T10:36:42.240Z,37.35
2018-02-16T10:39:14.144Z,32.65
2018-02-16T10:41:54.571Z,31.10
2018-02-16T10:44:24.587Z,25.58
2018-02-16T10:46:54.515Z,25.05
2018-02-16T10:49:33.626Z,26.23
2018-02-16T10:52:03.320Z,20.15
2018-02-16T10:54:34.019Z,22.75
2018-02-16T10:57:13.143Z,26.02
2018-02-16T10:59:44.207Z,21.17
2018-02-16T11:02:25.341Z,23.17
2018-02-16T11:04:59.087Z,22.62
2018-02-16T11:07:49.688Z,20.37
2018-02-16T11:10:17.724Z,22.13
2018-02-16T11:12:45.789Z,25.20
2018-02-16T11:15:13.839Z,23.60
2018-02-16T11:17:43.803Z,20.52
2018-02-16T11:20:11.831Z,22.00
2018-02-16T11:22:42.887Z,26.50
2018-02-16T11:25:18.350Z,23.15
2018-02-16T11:27:52.271Z,23.57
2018-02-16T11:30:26.047Z,21.93
2018-02-16T11:32:54.099Z,33.10
2018-02-16T11:35:23.075Z,29.20
2018-02-16T11:37:54.415Z,31.90
2018-02-16T11:40:23.187Z,22.27
2018-02-16T11:43:02.261Z,21.17
2018-02-16T11:45:38.159Z,24.33
2018-02-16T11:48:19.511Z,25.17
2018-02-16T11:50:54.275Z,19.53
2018-02-16T11:56:17.351Z,19.90
2018-02-16T11:58:52.455Z,21.30
2018-02-16T12:01:20.491Z,20.47
2018-02-16T12:03:49.283Z,23.20
2018-02-16T12:06:17.327Z,22.37
2018-02-16T12:08:53.556Z,22.95
2018-02-16T12:11:25.679Z,25.25
2018-02-16T12:13:53.727Z,23.23
2018-02-16T12:16:26.035Z,18.95
2018-02-16T12:18:54.067Z,18.37
2018-02-16T12:21:22.098Z,24.57
2018-02-16T12:23:50.151Z,22.73
2018-02-16T12:26:19.191Z,22.80
2018-02-16T12:28:52.327Z,20.77
2018-02-16T12:31:33.702Z,18.70
2018-02-16T12:34:02.835Z,23.50
2018-02-16T12:36:30.914Z,17.67
2018-02-16T12:38:58.935Z,18.07
2018-02-16T12:41:31.282Z,21.80
2018-02-16T12:43:59.321Z,23.17
2018-02-16T12:46:29.435Z,28.60
2018-02-16T12:48:58.462Z,19.17
2018-02-16T12:51:27.267Z,20.20
2018-02-16T12:53:57.267Z,25.45
2018-02-16T12:56:27.055Z,19.30
2018-02-16T12:58:55.096Z,20.80
2018-02-16T13:01:23.159Z,22.25
2018-02-16T13:03:51.179Z,21.52
2018-02-16T13:06:19.990Z,22.97
2018-02-16T13:08:48.019Z,19.30
2018-02-16T13:11:16.063Z,16.53
2018-02-16T13:13:44.098Z,19.90
2018-02-16T13:16:12.202Z,14.20
2018-02-16T13:18:40.238Z,15.07
2018-02-16T13:21:08.291Z,16.40
2018-02-16T13:23:37.138Z,15.63
2018-02-16T13:26:07.172Z,16.23
2018-02-16T13:28:35.235Z,16.40
2018-02-16T13:31:03.275Z,20.30
2018-02-16T13:33:33.291Z,19.40
2018-02-16T13:36:02.247Z,22.03
2018-02-16T13:38:40.810Z,16.33
2018-02-16T13:41:12.118Z,15.37
2018-02-16T13:43:53.339Z,22.37
2018-02-16T13:46:24.831Z,12.50
2018-02-16T13:49:06.887Z,17.07
2018-02-16T13:52:00.067Z,16.70
2018-02-16T13:54:28.161Z,19.67
2018-02-16T13:56:58.068Z,34.37
2018-02-16T13:59:26.099Z,17.90
2018-02-16T14:01:54.167Z,22.83
2018-02-16T14:04:23.207Z,19.43
2018-02-16T14:06:55.882Z,25.23
2018-02-16T14:09:25.691Z,19.40
2018-02-16T14:11:54.520Z,17.70
2018-02-16T14:14:22.558Z,15.93
2018-02-16T14:16:52.254Z,19.00
2018-02-16T14:19:20.290Z,17.60
2018-02-16T14:21:50.267Z,17.23
2018-02-16T14:24:18.317Z,13.47
2018-02-16T14:26:46.347Z,16.83
2018-02-16T14:29:17.414Z,19.97
2018-02-16T14:31:46.407Z,11.43
2018-02-16T14:34:14.439Z,14.60
2018-02-16T14:36:44.406Z,12.70
2018-02-16T14:39:18.591Z,17.33
2018-02-16T14:41:54.025Z,12.67
2018-02-16T14:44:23.078Z,17.50
2018-02-16T14:46:55.926Z,18.00
2018-02-16T14:49:27.707Z,18.87
2018-02-16T14:51:59.439Z,11.20
2018-02-16T14:54:35.895Z,16.30
2018-02-16T14:57:11.259Z,11.60
2018-02-16T14:59:55.487Z,15.43
2018-02-16T15:02:25.243Z,16.93
2018-02-16T15:04:54.207Z,14.17
2018-02-16T15:07:23.206Z,15.90
2018-02-16T15:09:52.183Z,12.07
2018-02-16T15:12:22.199Z,15.90
2018-02-16T15:15:04.607Z,15.23
2018-02-16T15:17:40.166Z,15.13
2018-02-16T15:20:08.195Z,17.47
2018-02-16T15:22:41.658Z,16.37
2018-02-16T15:25:09.954Z,19.40
2018-02-16T15:27:41.570Z,21.23
2018-02-16T15:30:10.462Z,25.63
2018-02-16T15:32:52.818Z,21.63
2018-02-16T15:35:31.026Z,26.50
2018-02-16T15:37:59.083Z,27.20
2018-02-16T15:40:32.315Z,23.47
2018-02-16T15:43:19.391Z,25.30
2018-02-16T15:45:52.837Z,25.33
2018-02-16T15:48:22.855Z,27.10
2018-02-16T15:51:02.037Z,27.23
2018-02-16T15:53:31.966Z,29.70
2018-02-16T15:56:05.083Z,28.92
2018-02-16T15:58:37.738Z,29.70
2018-02-16T16:01:12.231Z,31.33
2018-02-16T16:03:40.571Z,29.67
2018-02-16T16:06:20.078Z,34.25
2018-02-16T16:08:49.155Z,33.55
2018-02-16T16:11:17.819Z,38.13
2018-02-16T16:13:46.766Z,28.52
2018-02-16T16:16:19.686Z,29.92
2018-02-16T16:18:52.535Z,38.80
2018-02-16T16:21:20.580Z,33.60
2018-02-16T16:23:52.978Z,39.20
2018-02-16T16:26:31.411Z,37.08
2018-02-16T16:29:00.430Z,37.83
2018-02-16T16:31:32.322Z,45.78
2018-02-16T16:34:05.950Z,44.20
2018-02-16T16:39:33.430Z,39.67
2018-02-16T16:42:02.284Z,42.05
2018-02-16T16:44:31.343Z,45.85
2018-02-16T16:47:00.122Z,51.95
2018-02-16T16:49:36.274Z,53.17
2018-02-16T16:52:06.978Z,41.60
2018-02-16T16:54:47.510Z,50.53
2018-02-16T16:57:17.454Z,41.72
2018-02-16T16:59:45.470Z,55.10
2018-02-16T17:02:17.282Z,52.97
2018-02-16T17:05:10.086Z,47.15
2018-02-16T17:07:45.678Z,49.88
2018-02-16T17:10:14.698Z,55.45
2018-02-16T17:12:57.950Z,47.55
2018-02-16T17:15:33.970Z,47.28
2018-02-16T17:18:12.653Z,46.00
2018-02-16T17:20:42.618Z,52.97
2018-02-16T17:23:17.237Z,51.78
2018-02-16T17:25:51.814Z,50.50
2018-02-16T17:28:31.675Z,59.88
2018-02-16T17:31:18.057Z,60.88
2018-02-16T17:33:52.290Z,62.10
2018-02-16T17:36:23.238Z,86.55
2018-02-16T17:38:53.285Z,80.55
2018-02-16T17:41:36.234Z,71.00
2018-02-16T17:44:05.213Z,77.70
2018-02-16T17:46:46.517Z,64.90
2018-02-16T17:49:15.489Z,64.30
2018-02-16T17:51:44.429Z,72.75
2018-02-16T17:54:13.434Z,70.18
2018-02-16T17:56:41.454Z,63.70
2018-02-16T17:59:16.849Z,78.85
2018-02-16T18:01:48.802Z,69.87
2018-02-16T18:04:23.301Z,80.40
2018-02-16T18:06:51.362Z,73.60
2018-02-16T18:09:19.378Z,93.37
2018-02-16T18:11:49.222Z,79.12
2018-02-16T18:14:17.254Z,69.95
2018-02-16T18:16:46.059Z,87.82
2018-02-16T18:19:14.857Z,83.85
2018-02-16T18:21:43.825Z,73.10
2018-02-16T18:24:13.834Z,78.72
2018-02-16T18:26:41.866Z,92.82
2018-02-16T18:29:09.905Z,71.25
2018-02-16T18:31:37.941Z,94.13
2018-02-16T18:34:05.986Z,108.78
2018-02-16T18:36:35.851Z,101.00
2018-02-16T18:39:07.421Z,93.53
2018-02-16T18:41:40.324Z,82.40
2018-02-16T18:44:21.605Z,105.10
2018-02-16T18:46:59.085Z,116.88
2018-02-16T18:49:32.461Z,94.00
2018-02-16T18:52:17.849Z,100.50
2018-02-16T18:54:46.801Z,101.87
2018-02-16T18:57:16.553Z,93.75
2018-02-16T18:59:49.978Z,103.78
2018-02-16T19:02:22.607Z,93.80
2018-02-16T19:04:53.362Z,92.45
2018-02-16T19:07:28.974Z,100.00
2018-02-16T19:09:59.045Z,98.95
2018-02-16T19:12:34.206Z,122.82
2018-02-16T19:15:06.085Z,99.62
2018-02-16T19:17:39.929Z,102.40
2018-02-16T19:20:11.757Z,105.72
2018-02-16T19:22:43.293Z,112.18
2018-02-16T19:25:11.321Z,125.72
2018-02-16T19:27:52.149Z,99.68
2018-02-16T19:30:25.413Z,97.18
2018-02-16T19:32:53.433Z,93.18
2018-02-16T19:35:21.525Z,93.55
2018-02-16T19:37:53.629Z,105.32
2018-02-16T19:40:26.416Z,108.60
2018-02-16T19:43:11.403Z,117.62
2018-02-16T19:45:40.217Z,114.78
2018-02-16T19:48:21.893Z,140.48
2018-02-16T19:50:51.889Z,144.82
2018-02-16T19:53:21.689Z,130.85
2018-02-16T19:55:50.765Z,130.68
2018-02-16T19:58:23.265Z,136.20
2018-02-16T20:00:52.085Z,147.10
2018-02-16T20:03:39.126Z,151.68
2018-02-16T20:06:09.057Z,312.08
2018-02-16T20:08:37.088Z,187.75
2018-02-16T20:11:11.097Z,255.15
2018-02-16T20:13:44.653Z,284.50
2018-02-16T20:16:16.465Z,239.82
2018-02-16T20:18:47.234Z,201.98
2018-02-16T20:21:16.249Z,181.37
2018-02-16T20:24:04.549Z,204.40
2018-02-16T20:26:32.625Z,158.82
2018-02-16T20:29:01.574Z,127.95
2018-02-16T20:31:29.605Z,304.65
2018-02-16T20:33:57.653Z,294.10
2018-02-16T20:36:27.709Z,445.52
2018-02-16T20:39:00.086Z,310.40
2018-02-16T20:41:29.061Z,354.70
2018-02-16T20:44:02.616Z,364.80
2018-02-16T20:46:30.833Z,469.00
2018-02-16T20:49:02.405Z,346.23
2018-02-16T20:51:35.089Z,191.32
2018-02-16T20:54:04.353Z,229.48
2018-02-16T20:56:33.362Z,161.75
2018-02-16T20:59:02.513Z,132.35
2018-02-16T21:01:32.265Z,130.25
2018-02-16T21:04:00.449Z,133.20
2018-02-16T21:06:36.585Z,100.22
2018-02-16T21:09:05.816Z,130.35
2018-02-16T21:11:34.673Z,149.10
2018-02-16T21:14:04.021Z,141.30
2018-02-16T21:16:35.104Z,136.50
2018-02-16T21:19:03.325Z,105.30
2018-02-16T21:21:32.157Z,163.70
2018-02-16T21:24:04.029Z,196.07
2018-02-16T21:26:33.813Z,122.10
2018-02-16T21:29:03.789Z,141.12
2018-02-16T21:31:36.157Z,162.73
2018-02-16T21:34:07.409Z,172.65
2018-02-16T21:36:43.413Z,210.52
2018-02-16T21:39:16.565Z,141.35
2018-02-16T21:41:48.033Z,103.03
2018-02-16T21:44:16.100Z,94.30
2018-02-16T21:46:44.198Z,69.10
2018-02-16T21:49:22.021Z,82.72
2018-02-16T21:51:57.673Z,78.87
2018-02-16T21:54:27.821Z,105.90
2018-02-16T21:56:56.641Z,169.10
2018-02-16T21:59:26.645Z,198.77
2018-02-16T22:01:54.725Z,375.25
2018-02-16T22:04:31.941Z,157.68
2018-02-16T22:07:00.837Z,147.60
2018-02-16T22:09:29.877Z,216.88
2018-02-16T22:11:59.153Z,113.60
2018-02-16T22:14:30.893Z,101.87
2018-02-16T22:17:09.904Z,82.03
2018-02-16T22:19:40.381Z,81.10
2018-02-16T22:24:47.076Z,93.60
2018-02-16T22:27:17.849Z,76.12
2018-02-16T22:29:47.817Z,77.62
2018-02-16T22:32:19.025Z,84.05
2018-02-16T22:34:50.177Z,91.40
2018-02-16T22:37:23.985Z,118.78
2018-02-16T22:39:53.101Z,109.18
2018-02-16T22:42:23.042Z,94.82
2018-02-16T22:44:52.245Z,96.97
2018-02-16T22:47:24.033Z,90.55
2018-02-16T22:49:52.241Z,83.00
2018-02-16T22:52:21.121Z,95.18
2018-02-16T22:54:50.557Z,76.47
2018-02-16T22:57:25.657Z,91.95
2018-02-16T23:00:09.032Z,90.20
2018-02-16T23:02:55.552Z,89.55
2018-02-16T23:05:31.588Z,80.30
2018-02-16T23:08:05.320Z,85.00
2018-02-16T23:10:38.444Z,65.12
2018-02-16T23:13:06.452Z,70.32
2018-02-16T23:15:36.493Z,78.15
2018-02-16T23:18:05.588Z,69.45
2018-02-16T23:20:35.720Z,72.05
2018-02-16T23:23:03.800Z,71.80
2018-02-16T23:25:33.400Z,74.72
2018-02-16T23:28:01.481Z,73.55
2018-02-16T23:30:29.584Z,67.07
2018-02-16T23:32:57.697Z,59.85
2018-02-16T23:35:25.784Z,61.83
2018-02-16T23:37:53.881Z,68.90
2018-02-16T23:40:26.144Z,65.35
2018-02-16T23:43:01.553Z,64.82
2018-02-16T23:45:32.596Z,61.72
2018-02-16T23:48:02.473Z,69.07
2018-02-16T23:50:32.562Z,65.35
2018-02-16T23:53:01.643Z,76.45
2018-02-16T23:55:30.740Z,69.35
2018-02-16T23:57:58.817Z,69.37
